createdAt,value
2019-01-16T00:00:23.572Z,39.35
2019-01-16T00:03:14.884Z,39.29
2019-01-16T00:06:03.559Z,39.12
2019-01-16T00:08:52.019Z,39.03
2019-01-16T00:11:49.833Z,38.43
2019-01-16T00:14:36.345Z,38.67
2019-01-16T00:17:23.520Z,38.50
2019-01-16T00:20:10.359Z,38.26
2019-01-16T00:22:57.439Z,37.64
2019-01-16T00:25:48.725Z,37.78
2019-01-16T00:28:43.419Z,37.89
2019-01-16T00:31:38.069Z,38.16
2019-01-16T00:34:32.654Z,38.32
2019-01-16T00:37:21.228Z,38.71
2019-01-16T00:40:09.678Z,38.84
2019-01-16T00:42:58.532Z,38.64
2019-01-16T00:45:49.890Z,38.67
2019-01-16T00:48:30.201Z,38.60
2019-01-16T00:51:24.732Z,38.47
2019-01-16T00:54:11.896Z,38.48
2019-01-16T00:57:00.414Z,39.42
2019-01-16T01:00:03.941Z,38.38
2019-01-16T01:02:48.155Z,38.45
2019-01-16T01:05:35.358Z,38.61
2019-01-16T01:08:22.405Z,38.89
2019-01-16T01:11:10.905Z,39.01
2019-01-16T01:14:05.643Z,39.58
2019-01-16T01:17:03.202Z,39.48
2019-01-16T01:19:50.075Z,39.84
2019-01-16T01:22:41.407Z,40.15
2019-01-16T01:25:28.652Z,40.54
2019-01-16T01:28:23.132Z,41.01
2019-01-16T01:31:11.596Z,41.46
2019-01-16T01:33:58.749Z,41.75
2019-01-16T01:36:49.240Z,41.23
2019-01-16T01:39:43.591Z,41.42
2019-01-16T01:42:44.267Z,41.52
2019-01-16T01:45:33.096Z,41.13
2019-01-16T01:48:28.356Z,41.97
2019-01-16T01:51:19.580Z,41.91
2019-01-16T01:54:07.540Z,42.26
2019-01-16T01:56:54.464Z,42.58
2019-01-16T01:59:41.590Z,42.94
2019-01-16T02:02:30.061Z,43.34
2019-01-16T02:05:30.407Z,44.00
2019-01-16T02:08:10.199Z,44.10
2019-01-16T02:11:05.190Z,44.50
2019-01-16T02:13:52.346Z,44.58
2019-01-16T02:16:41.386Z,45.24
2019-01-16T02:19:28.404Z,45.79
2019-01-16T02:22:19.755Z,46.73
2019-01-16T02:25:20.296Z,46.05
2019-01-16T02:28:05.872Z,46.56
2019-01-16T02:30:57.097Z,47.00
2019-01-16T02:33:45.633Z,47.09
2019-01-16T02:36:43.240Z,48.04
2019-01-16T02:39:40.900Z,47.63
2019-01-16T02:42:29.546Z,47.18
2019-01-16T02:45:35.949Z,47.61
2019-01-16T02:48:24.675Z,47.60
2019-01-16T02:51:13.139Z,48.08
2019-01-16T02:53:58.085Z,48.09
2019-01-16T02:56:52.447Z,48.32
2019-01-16T02:59:32.030Z,48.52
2019-01-16T03:02:23.712Z,48.63
2019-01-16T03:05:10.685Z,48.74
2019-01-16T03:08:11.475Z,48.45
2019-01-16T03:11:09.209Z,48.51
2019-01-16T03:14:00.453Z,48.63
2019-01-16T03:17:03.970Z,48.77
2019-01-16T03:19:40.946Z,49.60
2019-01-16T03:22:32.496Z,49.10
2019-01-16T03:25:19.581Z,49.61
2019-01-16T03:28:06.600Z,49.21
2019-01-16T03:31:04.323Z,49.35
2019-01-16T03:33:55.908Z,49.66
2019-01-16T03:36:50.378Z,49.60
2019-01-16T03:39:38.928Z,49.66
2019-01-16T03:42:31.035Z,49.45
2019-01-16T03:45:31.642Z,49.35
2019-01-16T03:48:14.171Z,48.72
2019-01-16T03:51:14.519Z,48.42
2019-01-16T03:54:02.799Z,48.32
2019-01-16T03:56:50.126Z,47.52
2019-01-16T03:59:47.512Z,47.78
2019-01-16T04:02:54.194Z,47.60
2019-01-16T04:05:45.607Z,47.31
2019-01-16T04:08:32.416Z,47.22
2019-01-16T04:11:20.278Z,46.79
2019-01-16T04:14:14.263Z,46.82
2019-01-16T04:17:10.770Z,47.25
2019-01-16T04:20:02.024Z,46.66
2019-01-16T04:22:47.112Z,46.30
2019-01-16T04:25:32.235Z,46.92
2019-01-16T04:28:19.416Z,46.84
2019-01-16T04:31:11.360Z,46.42
2019-01-16T04:33:58.577Z,46.15
2019-01-16T04:36:47.161Z,45.52
2019-01-16T04:39:36.435Z,45.42
2019-01-16T04:42:21.228Z,45.76
2019-01-16T04:45:12.846Z,45.33
2019-01-16T04:48:07.525Z,45.00
2019-01-16T04:51:08.066Z,45.38
2019-01-16T04:53:59.345Z,44.83
2019-01-16T04:56:53.646Z,45.31
2019-01-16T04:59:42.996Z,46.13
2019-01-16T05:02:31.578Z,46.26
2019-01-16T05:05:18.684Z,46.67
2019-01-16T05:08:22.300Z,46.31
2019-01-16T05:11:09.805Z,46.03
2019-01-16T05:14:04.137Z,46.51
2019-01-16T05:16:50.856Z,46.35
2019-01-16T05:19:38.757Z,46.97
2019-01-16T05:22:18.234Z,45.82
2019-01-16T05:25:05.909Z,45.19
2019-01-16T05:27:53.242Z,45.68
2019-01-16T05:30:39.226Z,45.31
2019-01-16T05:33:20.614Z,45.19
2019-01-16T05:36:24.727Z,45.44
2019-01-16T05:39:28.224Z,45.16
2019-01-16T05:42:29.074Z,44.96
2019-01-16T05:45:17.088Z,44.82
2019-01-16T05:47:54.436Z,44.95
2019-01-16T05:50:41.574Z,45.34
2019-01-16T05:53:36.653Z,45.20
2019-01-16T05:56:23.754Z,44.81
2019-01-16T05:59:04.617Z,44.97
2019-01-16T06:01:53.368Z,44.16
2019-01-16T06:04:48.276Z,44.21
2019-01-16T06:07:36.864Z,44.34
2019-01-16T06:10:27.850Z,44.10
2019-01-16T06:13:31.695Z,43.78
2019-01-16T06:16:23.306Z,43.13
2019-01-16T06:19:10.559Z,42.73
2019-01-16T06:22:11.495Z,43.08
2019-01-16T06:25:03.018Z,42.64
2019-01-16T06:27:54.519Z,42.49
2019-01-16T06:30:55.046Z,42.75
2019-01-16T06:33:59.286Z,42.80
2019-01-16T06:36:46.934Z,42.88
2019-01-16T06:39:34.193Z,41.99
2019-01-16T06:42:28.942Z,41.82
2019-01-16T06:45:17.463Z,41.79
2019-01-16T06:48:04.694Z,41.26
2019-01-16T06:51:05.518Z,40.93
2019-01-16T06:53:54.124Z,40.71
2019-01-16T06:56:43.170Z,40.60
2019-01-16T06:59:32.178Z,40.12
2019-01-16T07:02:20.714Z,40.62
2019-01-16T07:05:12.324Z,40.15
2019-01-16T07:08:08.861Z,39.92
2019-01-16T07:11:00.359Z,40.20
2019-01-16T07:13:47.408Z,39.97
2019-01-16T07:16:48.940Z,39.63
2019-01-16T07:19:38.165Z,39.78
2019-01-16T07:22:38.673Z,39.76
2019-01-16T07:25:26.826Z,39.71
2019-01-16T07:28:09.734Z,39.70
2019-01-16T07:30:55.762Z,39.51
2019-01-16T07:33:54.968Z,39.53
2019-01-16T07:36:42.310Z,39.28
2019-01-16T07:39:33.879Z,39.39
2019-01-16T07:42:31.540Z,39.63
2019-01-16T07:45:30.780Z,39.62
2019-01-16T07:48:22.398Z,39.04
2019-01-16T07:51:11.632Z,38.68
2019-01-16T07:54:00.441Z,37.99
2019-01-16T07:57:04.505Z,38.67
2019-01-16T07:59:59.475Z,38.09
2019-01-16T08:03:03.468Z,36.74
2019-01-16T08:05:50.507Z,36.44
2019-01-16T08:08:50.152Z,36.41
2019-01-16T08:11:37.521Z,35.76
2019-01-16T08:14:38.596Z,36.15
2019-01-16T08:17:22.559Z,36.23
2019-01-16T08:20:10.042Z,36.97
2019-01-16T08:22:49.121Z,36.28
2019-01-16T08:25:44.192Z,36.85
2019-01-16T08:28:43.202Z,36.18
2019-01-16T08:31:36.406Z,35.64
2019-01-16T08:34:22.548Z,35.41
2019-01-16T08:37:09.856Z,35.04
2019-01-16T08:40:04.454Z,34.49
2019-01-16T08:42:44.483Z,34.15
2019-01-16T08:45:25.125Z,34.52
2019-01-16T08:48:17.948Z,34.56
2019-01-16T08:51:05.312Z,39.14
2019-01-16T08:53:52.314Z,35.58
2019-01-16T08:56:40.534Z,35.67
2019-01-16T08:59:29.898Z,35.87
2019-01-16T09:02:11.119Z,36.12
2019-01-16T09:04:59.780Z,36.88
2019-01-16T09:07:57.461Z,37.05
2019-01-16T09:11:01.174Z,37.09
2019-01-16T09:14:07.944Z,36.77
2019-01-16T09:17:14.593Z,37.16
2019-01-16T09:20:01.438Z,37.50
2019-01-16T09:22:42.287Z,37.94
2019-01-16T09:25:31.043Z,38.00
2019-01-16T09:28:18.125Z,38.22
2019-01-16T09:31:02.046Z,38.10
2019-01-16T09:33:56.900Z,38.00
2019-01-16T09:36:44.346Z,37.97
2019-01-16T09:39:31.250Z,37.56
2019-01-16T09:42:28.643Z,37.65
2019-01-16T09:45:15.463Z,37.65
2019-01-16T09:48:04.329Z,37.14
2019-01-16T09:50:53.107Z,37.07
2019-01-16T09:53:41.910Z,36.72
2019-01-16T09:56:29.561Z,36.52
2019-01-16T09:59:21.143Z,37.14
2019-01-16T10:02:21.850Z,36.61
2019-01-16T10:05:16.677Z,36.68
2019-01-16T10:08:00.821Z,36.79
2019-01-16T10:11:07.896Z,37.54
2019-01-16T10:13:47.990Z,36.62
2019-01-16T10:16:39.447Z,36.54
2019-01-16T10:19:42.961Z,36.51
2019-01-16T10:22:31.931Z,36.13
2019-01-16T10:25:27.172Z,36.36
2019-01-16T10:28:15.953Z,36.02
2019-01-16T10:31:05.238Z,35.76
2019-01-16T10:33:54.393Z,35.61
2019-01-16T10:36:46.299Z,35.66
2019-01-16T10:39:33.423Z,35.38
2019-01-16T10:42:24.804Z,35.09
2019-01-16T10:45:19.742Z,35.39
2019-01-16T10:48:11.136Z,35.36
2019-01-16T10:50:51.250Z,35.31
2019-01-16T10:53:38.317Z,35.21
2019-01-16T10:56:30.921Z,35.09
2019-01-16T10:59:28.027Z,35.32
2019-01-16T11:02:22.562Z,35.43
2019-01-16T11:05:11.522Z,35.10
2019-01-16T11:08:04.797Z,35.21
2019-01-16T11:10:54.391Z,35.16
2019-01-16T11:13:42.268Z,34.50
2019-01-16T11:16:44.746Z,34.47
2019-01-16T11:23:08.197Z,34.13
2019-01-16T11:25:55.844Z,33.76
2019-01-16T11:28:48.415Z,34.00
2019-01-16T11:31:38.348Z,33.64
2019-01-16T11:34:17.279Z,33.04
2019-01-16T11:37:06.575Z,33.25
2019-01-16T11:40:04.689Z,33.23
2019-01-16T11:42:57.676Z,33.27
2019-01-16T11:45:46.846Z,32.93
2019-01-16T11:48:41.991Z,33.14
2019-01-16T11:51:33.785Z,32.71
2019-01-16T11:54:22.151Z,32.81
2019-01-16T11:57:10.747Z,32.67
2019-01-16T11:59:56.578Z,32.70
2019-01-16T12:03:02.484Z,32.39
2019-01-16T12:05:52.757Z,32.17
2019-01-16T12:08:49.242Z,31.98
2019-01-16T12:11:42.326Z,31.54
2019-01-16T12:14:46.486Z,32.06
2019-01-16T12:17:46.665Z,31.98
2019-01-16T12:20:30.447Z,32.38
2019-01-16T12:23:34.726Z,32.15
2019-01-16T12:26:22.709Z,31.97
2019-01-16T12:29:17.498Z,32.60
2019-01-16T12:32:11.906Z,32.83
2019-01-16T12:34:58.711Z,32.42
2019-01-16T12:37:56.254Z,32.53
2019-01-16T12:40:43.371Z,32.93
2019-01-16T12:43:31.597Z,32.55
2019-01-16T12:46:18.710Z,32.80
2019-01-16T12:49:16.796Z,32.80
2019-01-16T12:52:01.996Z,33.16
2019-01-16T12:54:50.509Z,33.16
2019-01-16T12:57:41.958Z,32.56
2019-01-16T13:00:35.135Z,32.61
2019-01-16T13:03:29.631Z,32.69
2019-01-16T13:06:21.195Z,32.45
2019-01-16T13:09:15.701Z,32.32
2019-01-16T13:12:13.499Z,32.42
2019-01-16T13:14:52.097Z,32.49
2019-01-16T13:17:39.374Z,32.50
2019-01-16T13:20:30.053Z,32.58
2019-01-16T13:23:09.624Z,32.78
2019-01-16T13:25:56.976Z,32.78
2019-01-16T13:28:45.500Z,32.72
2019-01-16T13:31:39.769Z,32.65
2019-01-16T13:34:28.327Z,32.37
2019-01-16T13:37:19.871Z,32.67
2019-01-16T13:39:59.904Z,32.99
2019-01-16T13:42:48.346Z,32.86
2019-01-16T13:45:37.051Z,33.04
2019-01-16T13:48:38.820Z,33.17
2019-01-16T13:51:25.711Z,32.99
2019-01-16T13:54:12.828Z,33.43
2019-01-16T13:57:16.328Z,33.59
2019-01-16T13:59:57.977Z,33.76
2019-01-16T14:02:43.401Z,34.09
2019-01-16T14:05:27.813Z,34.62
2019-01-16T14:08:07.979Z,34.69
2019-01-16T14:10:56.618Z,35.25
2019-01-16T14:13:48.683Z,34.78
2019-01-16T14:16:37.257Z,34.94
2019-01-16T14:19:32.021Z,35.37
2019-01-16T14:22:23.588Z,35.70
2019-01-16T14:25:15.239Z,35.95
2019-01-16T14:28:06.480Z,36.14
2019-01-16T14:30:57.905Z,36.49
2019-01-16T14:33:44.786Z,36.68
2019-01-16T14:36:33.405Z,37.18
2019-01-16T14:39:20.415Z,37.44
2019-01-16T14:42:24.272Z,37.14
2019-01-16T14:45:11.451Z,37.88
2019-01-16T14:48:12.208Z,37.69
2019-01-16T14:50:59.430Z,37.84
2019-01-16T14:53:53.854Z,38.21
2019-01-16T14:56:48.483Z,38.50
2019-01-16T14:59:29.053Z,38.86
2019-01-16T15:02:20.285Z,38.76
2019-01-16T15:05:07.507Z,39.23
2019-01-16T15:07:55.946Z,39.30
2019-01-16T15:10:59.620Z,39.38
2019-01-16T15:13:57.241Z,38.99
2019-01-16T15:16:48.574Z,39.21
2019-01-16T15:19:39.788Z,39.07
2019-01-16T15:22:34.184Z,39.08
2019-01-16T15:25:28.544Z,39.06
2019-01-16T15:28:15.556Z,39.10
2019-01-16T15:31:03.991Z,38.82
2019-01-16T15:33:52.605Z,38.97
2019-01-16T15:36:43.947Z,38.53
2019-01-16T15:39:32.868Z,38.99
2019-01-16T15:42:29.526Z,38.84
2019-01-16T15:45:13.751Z,39.54
2019-01-16T15:48:02.178Z,38.85
2019-01-16T15:51:02.685Z,38.74
2019-01-16T15:53:49.849Z,39.05
2019-01-16T15:56:30.380Z,39.26
2019-01-16T15:59:12.715Z,39.50
2019-01-16T16:01:59.944Z,39.38
2019-01-16T16:04:48.388Z,39.31
2019-01-16T16:07:29.735Z,39.11
2019-01-16T16:10:16.882Z,39.03
2019-01-16T16:13:05.348Z,38.32
2019-01-16T16:15:57.011Z,38.50
2019-01-16T16:18:45.518Z,38.68
2019-01-16T16:21:32.634Z,38.58
2019-01-16T16:24:33.646Z,38.37
2019-01-16T16:27:34.327Z,38.62
2019-01-16T16:30:21.696Z,38.52
2019-01-16T16:33:10.130Z,38.15
2019-01-16T16:36:01.569Z,38.54
2019-01-16T16:38:50.007Z,38.80
2019-01-16T16:41:41.307Z,45.32
2019-01-16T16:44:28.108Z,38.06
2019-01-16T16:47:25.734Z,38.13
2019-01-16T16:50:20.271Z,37.85
2019-01-16T16:53:08.823Z,37.71
2019-01-16T16:55:49.201Z,38.03
2019-01-16T16:58:43.744Z,38.21
2019-01-16T17:01:27.350Z,38.01
2019-01-16T17:04:14.729Z,38.72
2019-01-16T17:07:09.417Z,39.04
2019-01-16T17:10:00.908Z,38.63
2019-01-16T17:12:55.506Z,39.00
2019-01-16T17:16:02.133Z,38.89
2019-01-16T17:18:47.868Z,39.27
2019-01-16T17:21:39.225Z,39.25
2019-01-16T17:24:33.815Z,39.22
2019-01-16T17:27:22.339Z,39.73
2019-01-16T17:30:06.413Z,39.45
2019-01-16T17:32:54.988Z,39.86
2019-01-16T17:35:46.246Z,39.55
2019-01-16T17:38:40.771Z,39.42
2019-01-16T17:41:41.325Z,39.20
2019-01-16T17:44:32.672Z,38.89
2019-01-16T17:47:39.088Z,39.08
2019-01-16T17:50:27.240Z,39.36
2019-01-16T17:53:30.859Z,38.90
2019-01-16T17:56:21.601Z,39.28
2019-01-16T17:59:12.823Z,39.59
2019-01-16T18:02:04.427Z,39.14
2019-01-16T18:04:44.469Z,38.96
2019-01-16T18:07:41.870Z,38.99
2019-01-16T18:10:29.096Z,38.68
2019-01-16T18:13:22.305Z,38.13
2019-01-16T18:16:16.560Z,38.38
2019-01-16T18:19:11.126Z,38.20
2019-01-16T18:21:53.763Z,37.79
2019-01-16T18:24:40.724Z,45.57
2019-01-16T18:27:29.188Z,37.65
2019-01-16T18:30:35.692Z,37.61
2019-01-16T18:33:22.743Z,37.96
2019-01-16T18:36:20.304Z,38.49
2019-01-16T18:39:17.893Z,38.48
2019-01-16T18:42:12.831Z,37.92
2019-01-16T18:44:59.938Z,38.06
2019-01-16T18:47:48.506Z,38.83
2019-01-16T18:50:35.343Z,37.62
2019-01-16T18:53:38.840Z,37.73
2019-01-16T18:56:39.157Z,38.78
2019-01-16T18:59:30.668Z,38.54
2019-01-16T19:02:21.891Z,39.45
2019-01-16T19:05:06.856Z,40.00
2019-01-16T19:08:10.262Z,39.77
2019-01-16T19:10:50.636Z,39.51
2019-01-16T19:13:37.505Z,39.94
2019-01-16T19:16:28.789Z,40.72
2019-01-16T19:19:24.023Z,41.23
2019-01-16T19:22:04.693Z,40.91
2019-01-16T19:24:42.797Z,40.50
2019-01-16T19:27:31.386Z,40.26
2019-01-16T19:30:12.351Z,40.72
2019-01-16T19:33:09.994Z,40.97
2019-01-16T19:35:58.508Z,40.97
2019-01-16T19:38:41.661Z,40.88
2019-01-16T19:41:28.876Z,41.50
2019-01-16T19:44:15.876Z,41.65
2019-01-16T19:47:10.100Z,42.12
2019-01-16T19:49:57.317Z,42.51
2019-01-16T19:52:45.797Z,42.96
2019-01-16T19:55:38.151Z,42.25
2019-01-16T19:58:24.997Z,42.47
2019-01-16T20:01:08.580Z,41.88
2019-01-16T20:04:00.086Z,42.26
2019-01-16T20:06:48.580Z,41.75
2019-01-16T20:09:46.225Z,42.01
2019-01-16T20:12:37.641Z,42.07
2019-01-16T20:15:32.851Z,42.04
2019-01-16T20:18:14.211Z,42.02
2019-01-16T20:21:08.562Z,41.91
2019-01-16T20:24:03.217Z,42.00
2019-01-16T20:27:06.686Z,42.04
2019-01-16T20:29:56.377Z,41.77
2019-01-16T20:32:54.104Z,41.93
2019-01-16T20:35:48.575Z,41.61
2019-01-16T20:38:36.994Z,41.54
2019-01-16T20:41:40.961Z,41.49
2019-01-16T20:44:32.255Z,41.18
2019-01-16T20:47:19.311Z,41.27
2019-01-16T20:50:07.789Z,40.72
2019-01-16T20:53:17.361Z,40.99
2019-01-16T20:56:04.736Z,40.84
2019-01-16T20:58:51.643Z,40.62
2019-01-16T21:01:58.520Z,40.42
2019-01-16T21:04:46.543Z,39.99
2019-01-16T21:07:43.953Z,40.39
2019-01-16T21:10:33.013Z,40.72
2019-01-16T21:13:19.870Z,40.94
2019-01-16T21:16:06.788Z,40.80
2019-01-16T21:19:04.266Z,40.86
2019-01-16T21:22:01.629Z,41.84
2019-01-16T21:24:42.749Z,41.86
2019-01-16T21:27:42.497Z,41.75
2019-01-16T21:30:30.841Z,41.66
2019-01-16T21:33:34.542Z,41.68
2019-01-16T21:36:26.145Z,41.74
2019-01-16T21:39:21.648Z,41.49
2019-01-16T21:41:59.915Z,41.52
2019-01-16T21:44:48.483Z,41.63
2019-01-16T21:47:39.914Z,41.93
2019-01-16T21:50:44.097Z,41.67
2019-01-16T21:53:41.520Z,42.35
2019-01-16T21:56:30.106Z,41.95
2019-01-16T21:59:27.400Z,42.07
2019-01-16T22:02:13.840Z,42.66
2019-01-16T22:05:20.303Z,42.52
2019-01-16T22:07:59.949Z,41.82
2019-01-16T22:10:48.407Z,41.55
2019-01-16T22:13:36.980Z,41.54
2019-01-16T22:16:28.619Z,42.21
2019-01-16T22:19:17.753Z,43.12
2019-01-16T22:22:18.183Z,42.89
2019-01-16T22:25:14.162Z,43.74
2019-01-16T22:28:11.503Z,43.47
2019-01-16T22:30:53.974Z,44.57
2019-01-16T22:33:41.031Z,46.14
2019-01-16T22:36:29.535Z,44.29
2019-01-16T22:39:24.092Z,44.93
2019-01-16T22:42:17.413Z,45.52
2019-01-16T22:45:02.591Z,45.70
2019-01-16T22:48:02.669Z,45.09
2019-01-16T22:50:49.572Z,45.85
2019-01-16T22:53:43.170Z,46.30
2019-01-16T22:56:27.306Z,46.57
2019-01-16T22:59:21.614Z,46.69
2019-01-16T23:02:34.060Z,46.63
2019-01-16T23:05:27.072Z,47.25
2019-01-16T23:08:31.311Z,47.08
2019-01-16T23:11:49.319Z,46.27
2019-01-16T23:14:52.805Z,47.03
2019-01-16T23:17:59.370Z,48.09
2019-01-16T23:21:05.714Z,49.44
2019-01-16T23:23:49.754Z,50.24
2019-01-16T23:26:33.218Z,51.46
2019-01-16T23:29:27.750Z,53.03
2019-01-16T23:32:08.591Z,52.18
2019-01-16T23:35:05.083Z,51.21
2019-01-16T23:38:05.105Z,51.64
2019-01-16T23:41:02.420Z,53.13
2019-01-16T23:43:56.860Z,55.01
2019-01-16T23:46:51.522Z,53.11
2019-01-16T23:49:38.790Z,54.31
2019-01-16T23:52:33.107Z,54.98
2019-01-16T23:55:11.406Z,54.45
2019-01-16T23:57:58.524Z,55.47
